Time;durP1;ratioP1;P1;durP2;ratioP2;P2;SDS_P1;SDS_P2;PMS_P1;PMS_P2;Temp;Humidity;BMP_temperature;BMP_pressure;BME280_temperature;BME280_humidity;BME280_pressure;Samples;Min_cycle;Max_cycle;Signal;HPM_P1;HPM_P2
2021/04/24 00:00:19;;;;;;;16.23;3.78;;;9.00;63.90;;;;;;5030398;28;20052;-74
2021/04/24 00:02:45;;;;;;;17.00;3.70;;;8.90;64.10;;;;;;5030675;28;20374;-74
2021/04/24 00:05:22;;;;;;;15.43;4.07;;;8.90;64.60;;;;;;5030635;28;20025;-72
2021/04/24 00:07:47;;;;;;;9.73;4.38;;;8.70;65.20;;;;;;5032257;28;20013;-73
2021/04/24 00:10:16;;;;;;;12.35;4.30;;;8.80;65.70;;;;;;5030235;28;20489;-73
2021/04/24 00:12:43;;;;;;;10.77;3.72;;;8.70;66.10;;;;;;5030364;28;20068;-73
2021/04/24 00:15:11;;;;;;;14.32;4.22;;;8.80;66.20;;;;;;5030497;28;20091;-73
2021/04/24 00:17:38;;;;;;;18.02;4.25;;;8.80;66.30;;;;;;5029105;28;20037;-73
2021/04/24 00:20:06;;;;;;;7.93;3.35;;;8.80;66.70;;;;;;5030677;28;20067;-73
2021/04/24 00:22:32;;;;;;;;;;;8.80;67.10;;;;;;5030852;28;20073;-74
2021/04/24 00:24:58;;;;;;;13.30;3.80;;;8.80;67.20;;;;;;5028966;28;20031;-74
2021/04/24 00:27:23;;;;;;;10.50;4.22;;;8.80;67.50;;;;;;5030234;28;20057;-75
2021/04/24 00:29:49;;;;;;;16.23;5.13;;;8.80;67.80;;;;;;5030247;28;20502;-74
2021/04/24 00:32:14;;;;;;;21.48;5.03;;;8.70;68.20;;;;;;5029998;28;20083;-74
2021/04/24 00:34:40;;;;;;;15.52;4.75;;;8.70;68.50;;;;;;5031673;28;20299;-75
2021/04/24 00:37:06;;;;;;;13.80;4.28;;;8.50;69.90;;;;;;5030098;28;20102;-75
2021/04/24 00:39:31;;;;;;;12.88;3.90;;;8.50;70.20;;;;;;5030278;28;20041;-75
2021/04/24 00:41:57;;;;;;;14.95;4.22;;;8.50;70.40;;;;;;5029158;28;20446;-75
2021/04/24 00:44:23;;;;;;;8.20;3.50;;;8.50;71.20;;;;;;5028572;28;20036;-74
2021/04/24 00:46:49;;;;;;;10.45;3.72;;;8.40;70.90;;;;;;5031422;28;20033;-75
2021/04/24 00:49:14;;;;;;;10.50;3.80;;;8.50;70.60;;;;;;5030057;28;20375;-74
2021/04/24 00:51:40;;;;;;;14.18;3.58;;;8.40;70.90;;;;;;5029589;28;20120;-74
2021/04/24 00:54:06;;;;;;;14.82;4.10;;;8.30;71.40;;;;;;5029982;28;20042;-74
2021/04/24 00:56:33;;;;;;;12.50;4.40;;;8.40;71.50;;;;;;5029081;28;20038;-75
2021/04/24 00:59:00;;;;;;;10.30;3.92;;;8.30;72.90;;;;;;5031486;28;20100;-74
2021/04/24 01:01:25;;;;;;;11.95;4.30;;;8.30;72.80;;;;;;5029905;28;20411;-74
2021/04/24 01:03:55;;;;;;;14.07;4.30;;;8.30;73.30;;;;;;5028656;28;20133;-73
2021/04/24 01:06:21;;;;;;;11.23;4.03;;;8.30;73.80;;;;;;5029539;28;20037;-75
2021/04/24 01:08:46;;;;;;;12.85;4.38;;;8.40;73.70;;;;;;5028468;28;20048;-74
2021/04/24 01:11:12;;;;;;;11.98;4.15;;;8.20;74.80;;;;;;5029520;28;20029;-73
2021/04/24 01:13:40;;;;;;;12.32;4.38;;;8.20;75.00;;;;;;5031084;28;20022;-75
2021/04/24 01:16:06;;;;;;;9.35;4.43;;;8.20;75.50;;;;;;5029432;28;20044;-73
2021/04/24 01:18:31;;;;;;;13.63;4.82;;;8.30;75.70;;;;;;5029442;28;20033;-75
2021/04/24 01:20:58;;;;;;;14.23;5.07;;;8.30;76.60;;;;;;5028013;28;20117;-74
2021/04/24 01:23:25;;;;;;;11.30;4.40;;;8.20;76.70;;;;;;5028936;28;20439;-74
2021/04/24 01:25:51;;;;;;;14.38;5.40;;;8.20;77.60;;;;;;5030883;28;20463;-74
2021/04/24 01:28:18;;;;;;;10.77;4.22;;;8.20;77.70;;;;;;5028778;28;20103;-74
2021/04/24 01:30:45;;;;;;;14.18;4.78;;;8.20;77.80;;;;;;5029120;28;20099;-73
2021/04/24 01:33:13;;;;;;;8.77;3.78;;;8.20;78.40;;;;;;5029117;28;20045;-74
2021/04/24 01:35:40;;;;;;;;;;;8.30;78.70;;;;;;5029250;28;20025;-73
2021/04/24 01:38:06;;;;;;;12.55;4.75;;;8.20;79.50;;;;;;5030514;28;20357;-75
2021/04/24 01:40:33;;;;;;;14.30;5.40;;;8.20;79.50;;;;;;5029190;28;20041;-74
2021/04/24 01:43:01;;;;;;;11.27;4.55;;;8.10;80.30;;;;;;5027919;28;20038;-74
2021/04/24 01:45:28;;;;;;;7.43;4.20;;;8.20;80.10;;;;;;5028915;28;20053;-75
2021/04/24 01:47:55;;;;;;;13.65;4.20;;;8.10;80.30;;;;;;5028674;28;20053;-75
2021/04/24 01:50:24;;;;;;;11.90;5.13;;;8.10;80.20;;;;;;5028790;28;20060;-74
2021/04/24 01:52:52;;;;;;;13.30;4.78;;;8.00;80.00;;;;;;5032262;28;20037;-74
2021/04/24 01:55:22;;;;;;;13.85;4.80;;;8.00;80.40;;;;;;5032033;28;20087;-75
2021/04/24 01:57:50;;;;;;;11.98;4.35;;;8.00;80.80;;;;;;5032698;28;20065;-73
2021/04/24 02:00:27;;;;;;;17.15;4.45;;;8.00;80.40;;;;;;5032975;28;20634;-73
2021/04/24 02:02:54;;;;;;;12.32;4.03;;;7.90;80.70;;;;;;5032838;28;20030;-74
2021/04/24 02:05:21;;;;;;;10.23;4.47;;;8.10;80.30;;;;;;5032540;28;20030;-74
2021/04/24 02:07:58;;;;;;;13.27;4.55;;;8.20;80.20;;;;;;5034374;28;20022;-74
2021/04/24 02:10:26;;;;;;;14.93;4.88;;;8.10;80.20;;;;;;5032656;28;20061;-74
2021/04/24 02:12:53;;;;;;;14.02;4.53;;;8.00;81.00;;;;;;5032402;28;20128;-74
2021/04/24 02:15:19;;;;;;;13.07;4.28;;;7.90;81.10;;;;;;5032684;28;20526;-74
2021/04/24 02:17:45;;;;;;;18.63;4.95;;;8.10;81.10;;;;;;5031553;28;20133;-74
2021/04/24 02:20:11;;;;;;;13.93;4.30;;;8.10;80.80;;;;;;5031456;28;20120;-75
2021/04/24 02:22:37;;;;;;;19.58;5.05;;;8.00;80.90;;;;;;5033870;28;20045;-75
2021/04/24 02:25:06;;;;;;;13.07;4.93;;;7.90;81.40;;;;;;5032306;28;20518;-75
2021/04/24 02:27:32;;;;;;;12.38;4.30;;;8.00;81.20;;;;;;5032335;28;20104;-74
2021/04/24 02:29:58;;;;;;;15.18;5.43;;;7.90;81.70;;;;;;5031155;28;20030;-74
2021/04/24 02:32:27;;;;;;;13.82;4.60;;;7.90;82.40;;;;;;5032125;28;20032;-74
2021/04/24 02:34:53;;;;;;;10.85;4.63;;;7.90;82.50;;;;;;5034183;28;20435;-74
2021/04/24 02:37:19;;;;;;;13.30;5.20;;;8.00;82.10;;;;;;5032015;28;20053;-73
2021/04/24 02:39:47;;;;;;;12.73;4.70;;;8.00;82.20;;;;;;5032393;28;20048;-74
2021/04/24 02:42:22;;;;;;;16.40;5.40;;;7.80;83.50;;;;;;5031914;28;20103;-74
2021/04/24 02:44:48;;;;;;;12.38;5.03;;;8.00;83.20;;;;;;5030887;28;20049;-73
2021/04/24 02:47:14;;;;;;;13.50;5.30;;;8.10;83.10;;;;;;5032096;28;20036;-75
2021/04/24 02:49:40;;;;;;;12.13;4.88;;;8.20;82.40;;;;;;5033703;28;20037;-75
2021/04/24 02:52:07;;;;;;;15.95;5.22;;;8.30;82.50;;;;;;5032031;28;20033;-73
2021/04/24 02:54:33;;;;;;;16.63;5.43;;;8.30;82.80;;;;;;5032167;28;20034;-73
2021/04/24 02:56:59;;;;;;;12.52;5.05;;;8.30;83.50;;;;;;5031782;28;20112;-74
2021/04/24 02:59:25;;;;;;;17.90;5.75;;;8.20;83.50;;;;;;5031872;28;20025;-73
2021/04/24 03:01:52;;;;;;;15.65;5.82;;;8.40;83.60;;;;;;5033259;28;20064;-73
2021/04/24 03:04:18;;;;;;;19.98;6.47;;;8.40;83.40;;;;;;5030529;28;20104;-73
2021/04/24 03:06:44;;;;;;;16.25;5.60;;;8.50;83.50;;;;;;5031548;28;20139;-74
2021/04/24 03:09:09;;;;;;;15.57;6.05;;;8.60;83.30;;;;;;5031442;28;20045;-74
2021/04/24 03:11:36;;;;;;;21.92;6.32;;;8.50;84.20;;;;;;5030275;28;20037;-75
2021/04/24 03:14:03;;;;;;;21.27;7.60;;;8.60;84.60;;;;;;5032143;28;20026;-75
2021/04/24 03:16:29;;;;;;;18.95;5.72;;;8.50;84.90;;;;;;5031569;28;20120;-74
2021/04/24 03:18:55;;;;;;;13.82;6.15;;;8.40;85.60;;;;;;5031677;28;20519;-75
2021/04/24 03:21:22;;;;;;;12.90;6.20;;;8.60;85.50;;;;;;5031518;28;20489;-74
2021/04/24 03:23:48;;;;;;;18.77;6.50;;;8.30;86.30;;;;;;5030129;28;20048;-74
2021/04/24 03:26:14;;;;;;;14.63;5.97;;;8.30;87.20;;;;;;5031103;28;20026;-75
2021/04/24 03:28:40;;;;;;;18.98;6.45;;;8.40;87.00;;;;;;5032185;28;20037;-76
2021/04/24 03:31:06;;;;;;;15.77;6.05;;;8.60;86.70;;;;;;5031309;28;20034;-75
2021/04/24 03:33:31;;;;;;;13.93;6.25;;;8.40;87.10;;;;;;5030637;28;20045;-75
2021/04/24 03:35:57;;;;;;;16.05;6.80;;;8.50;86.70;;;;;;5031229;28;20029;-74
2021/04/24 03:38:23;;;;;;;16.83;7.13;;;8.60;86.50;;;;;;5031010;28;20264;-75
2021/04/24 03:40:49;;;;;;;22.40;7.25;;;8.50;87.00;;;;;;5032755;28;20048;-74
2021/04/24 03:43:15;;;;;;;18.30;7.05;;;8.20;88.40;;;;;;5030721;28;20462;-74
2021/04/24 03:45:41;;;;;;;21.95;7.28;;;8.30;88.40;;;;;;5029957;28;20045;-75
2021/04/24 03:48:07;;;;;;;18.33;7.22;;;8.30;88.60;;;;;;5030798;28;20143;-75
2021/04/24 03:50:33;;;;;;;21.38;7.05;;;8.30;88.80;;;;;;5030936;28;20455;-75
2021/04/24 03:52:59;;;;;;;18.88;7.00;;;8.30;88.90;;;;;;5032298;28;20056;-74
2021/04/24 03:55:24;;;;;;;14.32;6.82;;;8.50;88.00;;;;;;5030714;28;20045;-74
2021/04/24 03:57:54;;;;;;;18.20;7.05;;;8.60;87.90;;;;;;5030605;28;20064;-74
2021/04/24 04:00:21;;;;;;;21.60;6.55;;;8.70;87.80;;;;;;5030535;28;20033;-74
2021/04/24 04:02:49;;;;;;;30.75;8.57;;;8.60;88.10;;;;;;5029471;28;20439;-74
2021/04/24 04:05:16;;;;;;;17.30;6.68;;;8.70;87.80;;;;;;5030452;28;20670;-74
2021/04/24 04:07:43;;;;;;;15.98;6.72;;;8.50;88.80;;;;;;5032000;28;20359;-75
2021/04/24 04:10:10;;;;;;;24.00;8.07;;;8.60;88.50;;;;;;5029219;28;20033;-74
2021/04/24 04:12:35;;;;;;;28.52;7.65;;;8.50;88.90;;;;;;5030083;28;20041;-74
2021/04/24 04:15:01;;;;;;;18.38;6.88;;;8.30;89.50;;;;;;5029803;28;20034;-75
2021/04/24 04:17:27;;;;;;;14.48;6.82;;;8.30;90.40;;;;;;5029052;28;20110;-74
2021/04/24 04:19:52;;;;;;;15.85;6.65;;;8.40;90.00;;;;;;5032224;28;20538;-75
2021/04/24 04:22:18;;;;;;;14.73;6.57;;;8.40;89.90;;;;;;5029876;28;20121;-74
2021/04/24 04:24:44;;;;;;;25.40;7.72;;;8.30;90.10;;;;;;5029762;28;20037;-74
2021/04/24 04:27:10;;;;;;;20.17;6.40;;;8.30;90.20;;;;;;5029853;28;20513;-74
2021/04/24 04:29:35;;;;;;;23.23;7.60;;;8.30;90.30;;;;;;5028969;28;20349;-76
2021/04/24 04:32:01;;;;;;;15.63;7.05;;;8.20;90.40;;;;;;5031857;28;20036;-74
2021/04/24 04:34:26;;;;;;;21.58;7.18;;;8.10;90.60;;;;;;5030232;28;20037;-73
2021/04/24 04:36:52;;;;;;;21.17;7.13;;;8.10;90.60;;;;;;5030090;28;20040;-74
2021/04/24 04:39:17;;;;;;;17.67;6.55;;;8.20;90.70;;;;;;5029861;28;20042;-74
2021/04/24 04:41:43;;;;;;;22.67;6.78;;;8.10;91.10;;;;;;5028851;28;20406;-75
2021/04/24 04:44:09;;;;;;;17.90;6.72;;;8.20;90.70;;;;;;5031371;28;20399;-75
2021/04/24 04:46:34;;;;;;;23.48;7.28;;;8.10;91.00;;;;;;5029968;28;20042;-75
2021/04/24 04:49:00;;;;;;;21.33;7.10;;;8.00;91.30;;;;;;5029853;28;20075;-74
2021/04/24 04:51:25;;;;;;;17.45;6.22;;;8.00;91.40;;;;;;5029976;28;20033;-76
2021/04/24 04:53:51;;;;;;;17.55;7.28;;;8.10;91.20;;;;;;5029798;28;20021;-75
2021/04/24 04:56:16;;;;;;;17.60;6.63;;;8.00;91.40;;;;;;5029640;28;20097;-74
2021/04/24 04:58:42;;;;;;;19.85;7.00;;;8.10;91.50;;;;;;5031111;28;20025;-75
2021/04/24 05:01:08;;;;;;;18.80;6.80;;;8.20;91.30;;;;;;5029363;28;20089;-73
2021/04/24 05:03:33;;;;;;;21.30;7.38;;;8.10;91.50;;;;;;5028463;28;20037;-74
2021/04/24 05:06:00;;;;;;;17.25;6.82;;;8.00;91.80;;;;;;5028324;28;20053;-75
2021/04/24 05:08:26;;;;;;;19.40;7.03;;;7.90;91.80;;;;;;5028182;28;20045;-75
2021/04/24 05:10:52;;;;;;;15.10;6.60;;;8.00;91.70;;;;;;5030722;28;20025;-74
2021/04/24 05:13:18;;;;;;;13.80;6.80;;;8.20;91.50;;;;;;5029272;28;20045;-75
2021/04/24 05:15:44;;;;;;;15.90;7.05;;;8.30;91.40;;;;;;5029469;28;20046;-75
2021/04/24 05:18:09;;;;;;;13.85;6.50;;;8.30;91.40;;;;;;5029184;28;20060;-75
2021/04/24 05:20:36;;;;;;;21.95;6.80;;;8.40;91.50;;;;;;5029098;28;20169;-74
2021/04/24 05:23:01;;;;;;;16.10;7.25;;;8.50;91.20;;;;;;5029690;28;20037;-75
2021/04/24 05:25:27;;;;;;;17.73;6.25;;;8.40;91.50;;;;;;5027625;28;20073;-74
2021/04/24 05:27:52;;;;;;;15.05;6.97;;;8.30;91.50;;;;;;5028793;28;20049;-75
2021/04/24 05:30:18;;;;;;;14.60;6.82;;;8.30;91.50;;;;;;5028058;28;20253;-74
2021/04/24 05:32:45;;;;;;;20.25;7.38;;;8.40;91.60;;;;;;5029278;28;20025;-74
2021/04/24 05:35:13;;;;;;;14.10;6.07;;;8.50;91.70;;;;;;5029132;28;20029;-72
2021/04/24 05:37:39;;;;;;;17.70;6.30;;;8.70;91.30;;;;;;5030627;28;20451;-75
2021/04/24 05:40:06;;;;;;;21.38;6.80;;;8.80;91.30;;;;;;5029083;28;20084;-76
2021/04/24 05:42:32;;;;;;;14.80;6.53;;;8.80;91.10;;;;;;5029078;28;20053;-74
2021/04/24 05:44:59;;;;;;;17.95;7.03;;;8.80;91.00;;;;;;5029155;28;20049;-74
2021/04/24 05:47:25;;;;;;;18.00;7.15;;;8.70;91.30;;;;;;5027579;28;20126;-75
2021/04/24 05:49:51;;;;;;;13.85;6.20;;;8.60;91.50;;;;;;5030329;28;20434;-73
2021/04/24 05:52:17;;;;;;;16.67;6.97;;;8.80;91.40;;;;;;5028282;28;20045;-74
2021/04/24 05:54:43;;;;;;;16.58;7.40;;;8.70;91.50;;;;;;5028682;28;20083;-75
2021/04/24 05:57:10;;;;;;;19.27;7.13;;;8.60;91.80;;;;;;5027810;28;20037;-75
2021/04/24 05:59:35;;;;;;;19.77;7.30;;;8.70;91.60;;;;;;5029013;28;20029;-75
2021/04/24 06:02:01;;;;;;;14.75;6.45;;;8.70;91.40;;;;;;5030405;28;20017;-74
2021/04/24 06:04:27;;;;;;;13.82;7.40;;;8.80;91.40;;;;;;5028774;28;20041;-76
2021/04/24 06:06:52;;;;;;;16.42;7.30;;;8.80;91.40;;;;;;5028704;28;20319;-74
2021/04/24 06:09:18;;;;;;;20.10;6.55;;;8.70;91.60;;;;;;5028145;28;20128;-74
2021/04/24 06:11:43;;;;;;;21.17;7.65;;;8.70;91.70;;;;;;5028621;28;20109;-73
2021/04/24 06:14:09;;;;;;;15.52;6.78;;;8.80;91.70;;;;;;5030284;28;20025;-76
2021/04/24 06:16:35;;;;;;;17.13;6.93;;;9.00;91.70;;;;;;5029107;28;20106;-76
2021/04/24 06:19:00;;;;;;;16.52;7.10;;;8.90;91.50;;;;;;5028565;28;20029;-75
2021/04/24 06:21:26;;;;;;;18.05;6.78;;;9.00;91.50;;;;;;5028722;28;20045;-74
2021/04/24 06:23:52;;;;;;;15.27;6.57;;;9.00;91.50;;;;;;5027563;28;20049;-75
2021/04/24 06:26:18;;;;;;;18.75;7.32;;;9.10;91.30;;;;;;5028469;28;20451;-76
2021/04/24 06:28:43;;;;;;;13.98;6.35;;;9.20;91.20;;;;;;5030527;28;20064;-74
2021/04/24 06:31:09;;;;;;;16.55;6.80;;;9.00;91.60;;;;;;5028649;28;20042;-75
2021/04/24 06:33:38;;;;;;;13.52;7.30;;;9.00;91.70;;;;;;5028442;28;20033;-75
2021/04/24 06:36:04;;;;;;;19.40;7.20;;;9.10;91.50;;;;;;5028326;28;20033;-73
2021/04/24 06:38:30;;;;;;;14.48;6.90;;;9.20;91.90;;;;;;5029517;28;20120;-77
2021/04/24 06:40:55;;;;;;;18.05;7.47;;;9.20;92.00;;;;;;5033782;28;20163;-76
2021/04/24 06:43:22;;;;;;;15.07;6.60;;;9.10;92.20;;;;;;5031942;28;20506;-83
2021/04/24 06:45:49;;;;;;;19.42;7.20;;;9.30;92.10;;;;;;5030723;28;20349;-80
2021/04/24 06:48:14;;;;;;;16.95;6.85;;;9.60;91.50;;;;;;5032130;28;20049;-78
2021/04/24 06:50:40;;;;;;;19.83;6.65;;;9.80;91.30;;;;;;5031461;28;20530;-78
2021/04/24 06:53:06;;;;;;;16.33;5.70;;;9.90;91.00;;;;;;5033554;28;20021;-75
2021/04/24 06:55:32;;;;;;;11.98;5.80;;;10.10;90.10;;;;;;5031964;28;20064;-79
2021/04/24 06:57:57;;;;;;;15.00;5.40;;;10.00;90.10;;;;;;5031849;28;20387;-77
2021/04/24 07:00:23;;;;;;;18.83;5.03;;;10.10;89.10;;;;;;5031747;28;20119;-77
2021/04/24 07:02:49;;;;;;;16.80;4.78;;;9.90;89.20;;;;;;5031899;28;20570;-75
2021/04/24 07:05:15;;;;;;;10.20;4.47;;;10.20;88.60;;;;;;5030759;28;20347;-75
2021/04/24 07:07:42;;;;;;;13.70;4.13;;;10.00;87.10;;;;;;5033370;28;20025;-77
2021/04/24 07:10:09;;;;;;;12.20;4.32;;;10.20;86.30;;;;;;5031833;28;20042;-77
2021/04/24 07:12:36;;;;;;;10.53;3.90;;;10.50;85.50;;;;;;5031306;28;20029;-76
2021/04/24 07:15:02;;;;;;;9.60;3.47;;;10.60;84.00;;;;;;5031520;28;20037;-75
2021/04/24 07:17:28;;;;;;;10.68;4.57;;;10.80;83.30;;;;;;5031435;28;20395;-76
2021/04/24 07:19:53;;;;;;;11.50;4.35;;;11.00;83.40;;;;;;5033172;28;20056;-74
2021/04/24 07:22:19;;;;;;;10.98;3.80;;;11.00;83.10;;;;;;5031386;28;20034;-75
2021/04/24 07:24:46;;;;;;;13.32;5.13;;;10.90;82.80;;;;;;5030526;28;20050;-75
2021/04/24 07:27:13;;;;;;;15.00;4.50;;;10.80;83.10;;;;;;5030398;28;20375;-76
2021/04/24 07:29:39;;;;;;;16.83;4.80;;;10.50;83.00;;;;;;5030280;28;20143;-73
2021/04/24 07:32:05;;;;;;;7.05;4.13;;;10.90;83.90;;;;;;5032704;28;20546;-74
2021/04/24 07:34:31;;;;;;;16.70;4.82;;;11.10;81.90;;;;;;5031340;28;20111;-73
2021/04/24 07:36:57;;;;;;;11.05;4.65;;;11.20;81.20;;;;;;5031296;28;20045;-74
2021/04/24 07:39:22;;;;;;;15.30;4.82;;;11.20;81.30;;;;;;5031445;28;20045;-73
2021/04/24 07:41:48;;;;;;;10.45;4.40;;;11.10;80.80;;;;;;5030748;28;20057;-73
2021/04/24 07:44:13;;;;;;;14.45;4.60;;;11.10;80.70;;;;;;5030888;28;20482;-73
2021/04/24 07:46:39;;;;;;;11.05;4.45;;;11.20;80.60;;;;;;5032617;28;20049;-73
2021/04/24 07:49:05;;;;;;;8.85;4.18;;;11.30;80.50;;;;;;5030347;28;20505;-73
2021/04/24 07:51:31;;;;;;;13.68;4.07;;;11.80;80.00;;;;;;5030387;28;20466;-74
2021/04/24 07:53:56;;;;;;;14.15;4.05;;;12.00;78.60;;;;;;5030740;28;20042;-73
2021/04/24 07:56:22;;;;;;;13.10;4.53;;;12.20;77.70;;;;;;5031162;28;20025;-74
2021/04/24 07:58:47;;;;;;;10.45;3.60;;;12.10;77.00;;;;;;5032444;28;20562;-75
2021/04/24 08:01:13;;;;;;;11.82;3.78;;;12.20;76.10;;;;;;5030806;28;20498;-73
2021/04/24 08:03:39;;;;;;;8.73;3.85;;;12.10;75.70;;;;;;5030516;28;20041;-73
2021/04/24 08:06:04;;;;;;;12.10;3.90;;;12.20;75.30;;;;;;5030640;28;20056;-74
2021/04/24 08:08:30;;;;;;;8.88;2.95;;;12.30;74.80;;;;;;5030337;28;20049;-72
2021/04/24 08:10:56;;;;;;;8.88;2.55;;;12.30;73.00;;;;;;5032070;28;20124;-72
2021/04/24 08:13:22;;;;;;;6.32;2.53;;;12.30;71.60;;;;;;5030760;28;20382;-74
2021/04/24 08:15:49;;;;;;;15.05;3.45;;;12.20;71.10;;;;;;5030179;28;20044;-73
2021/04/24 08:18:14;;;;;;;7.40;3.25;;;12.50;71.80;;;;;;5030195;28;20455;-73
2021/04/24 08:20:40;;;;;;;10.20;3.08;;;13.00;70.60;;;;;;5030265;28;20049;-73
2021/04/24 08:23:06;;;;;;;9.10;2.80;;;13.80;69.50;;;;;;5031364;28;20307;-73
2021/04/24 08:25:32;;;;;;;11.15;3.42;;;14.20;67.40;;;;;;5030215;28;20046;-74
2021/04/24 08:27:58;;;;;;;9.25;3.85;;;14.10;66.60;;;;;;5030178;28;20451;-74
2021/04/24 08:30:23;;;;;;;8.57;3.67;;;13.80;67.20;;;;;;5029782;28;20037;-73
2021/04/24 08:32:50;;;;;;;11.38;3.53;;;13.50;67.70;;;;;;5030045;28;20037;-74
2021/04/24 08:35:16;;;;;;;10.93;4.45;;;13.30;68.40;;;;;;5029928;28;20032;-74
2021/04/24 08:37:44;;;;;;;14.45;4.28;;;13.10;68.50;;;;;;5031452;28;20121;-72
2021/04/24 08:40:12;;;;;;;15.13;3.95;;;12.90;68.70;;;;;;5029728;28;20543;-73
2021/04/24 08:42:40;;;;;;;15.15;4.78;;;12.90;68.60;;;;;;5029863;28;20041;-73
2021/04/24 08:45:14;;;;;;;22.00;4.63;;;12.80;68.60;;;;;;5029753;28;20041;-72
2021/04/24 08:47:45;;;;;;;11.80;3.70;;;13.10;68.60;;;;;;5029669;28;20033;-73
2021/04/24 08:50:18;;;;;;;9.82;3.80;;;13.50;68.50;;;;;;5029859;28;20082;-73
2021/04/24 08:52:44;;;;;;;10.43;4.43;;;14.60;66.70;;;;;;5031509;28;20455;-73
2021/04/24 08:55:16;;;;;;;12.02;3.55;;;15.30;63.70;;;;;;5029453;28;20042;-73
2021/04/24 08:57:42;;;;;;;12.02;3.75;;;16.40;63.30;;;;;;5029460;28;20092;-73
2021/04/24 09:00:09;;;;;;;10.32;3.78;;;17.00;58.30;;;;;;5029166;28;20128;-74
2021/04/24 09:02:36;;;;;;;12.38;4.22;;;17.60;57.00;;;;;;5028744;28;20029;-73
2021/04/24 09:05:03;;;;;;;10.32;3.80;;;17.50;55.20;;;;;;5030896;28;20411;-74
2021/04/24 09:07:29;;;;;;;8.15;3.55;;;16.80;53.60;;;;;;5029581;28;20029;-74
2021/04/24 09:09:59;;;;;;;8.13;3.10;;;16.10;54.00;;;;;;5029199;28;20688;-73
2021/04/24 09:12:40;;;;;;;9.43;3.85;;;15.70;54.70;;;;;;5029293;28;20049;-73
2021/04/24 09:15:17;;;;;;;12.63;4.35;;;15.40;55.10;;;;;;5029278;28;20352;-74
2021/04/24 09:18:06;;;;;;;11.18;4.63;;;15.10;55.30;;;;;;5029142;28;20044;-74
2021/04/24 09:20:51;;;;;;;9.65;3.97;;;14.90;55.50;;;;;;5028310;28;20120;-74
2021/04/24 09:23:28;;;;;;;9.77;3.67;;;15.10;56.90;;;;;;5028960;28;20120;-72
2021/04/24 09:26:13;;;;;;;9.37;3.70;;;15.90;56.60;;;;;;5031035;28;20029;-74
2021/04/24 09:28:45;;;;;;;10.35;4.22;;;16.80;53.40;;;;;;5029271;28;20371;-74
2021/04/24 09:31:24;;;;;;;7.95;4.30;;;16.60;52.60;;;;;;5028992;28;20067;-73
2021/04/24 09:34:00;;;;;;;9.40;4.38;;;15.40;53.10;;;;;;5029233;28;20045;-73
2021/04/24 09:36:38;;;;;;;14.55;4.75;;;14.90;54.70;;;;;;5029298;28;20134;-73
2021/04/24 09:39:06;;;;;;;10.20;4.90;;;15.20;54.70;;;;;;5029050;28;20033;-73
2021/04/24 09:41:40;;;;;;;14.52;4.93;;;14.90;54.50;;;;;;5029080;28;20324;-73
2021/04/24 09:44:09;;;;;;;11.02;4.43;;;14.90;55.90;;;;;;5030431;28;20025;-72
2021/04/24 09:46:51;;;;;;;9.00;3.53;;;15.80;55.90;;;;;;5028946;28;20048;-74
2021/04/24 09:49:17;;;;;;;10.38;3.83;;;17.00;54.50;;;;;;5029116;28;20033;-73
2021/04/24 09:51:47;;;;;;;7.85;3.20;;;18.50;52.20;;;;;;5028899;28;20034;-74
2021/04/24 09:54:14;;;;;;;10.27;4.10;;;19.40;49.70;;;;;;5028924;28;20379;-74
2021/04/24 09:56:40;;;;;;;9.77;2.97;;;20.20;46.40;;;;;;5029146;28;20045;-72
2021/04/24 09:59:10;;;;;;;9.40;4.18;;;19.90;46.10;;;;;;5030114;28;20018;-72
2021/04/24 10:01:41;;;;;;;9.88;3.67;;;19.90;45.60;;;;;;5029074;28;20022;-73
2021/04/24 10:04:11;;;;;;;8.20;4.57;;;20.00;44.40;;;;;;5028765;28;20064;-72
2021/04/24 10:06:37;;;;;;;8.15;3.53;;;19.20;44.20;;;;;;5028426;28;20425;-73
2021/04/24 10:09:25;;;;;;;9.20;3.60;;;19.30;45.00;;;;;;5027916;28;20466;-72
2021/04/24 10:11:52;;;;;;;11.95;4.45;;;20.10;43.80;;;;;;5028205;28;20026;-73
2021/04/24 10:14:30;;;;;;;10.27;3.20;;;20.80;42.10;;;;;;5031104;28;20032;-73
2021/04/24 10:16:57;;;;;;;8.02;3.08;;;21.50;40.30;;;;;;5034107;28;20021;-72
2021/04/24 10:19:24;;;;;;;9.98;3.70;;;21.00;38.80;;;;;;5032456;28;20067;-72
2021/04/24 10:21:50;;;;;;;10.77;3.60;;;21.60;39.00;;;;;;5032509;28;20463;-72
2021/04/24 10:24:16;;;;;;;7.47;3.17;;;20.10;38.30;;;;;;5031261;28;20053;-73
2021/04/24 10:26:43;;;;;;;7.60;2.58;;;20.70;38.90;;;;;;5032207;28;20388;-73
2021/04/24 10:29:11;;;;;;;5.85;2.80;;;20.20;38.70;;;;;;5032596;28;20096;-71
2021/04/24 10:31:37;;;;;;;8.03;3.43;;;19.40;39.70;;;;;;5034080;28;20036;-73
2021/04/24 10:34:05;;;;;;;9.13;4.03;;;19.20;41.00;;;;;;5032159;28;20033;-72
2021/04/24 10:36:35;;;;;;;8.25;3.70;;;18.90;42.20;;;;;;5030806;28;20041;-74
2021/04/24 10:39:05;;;;;;;12.50;4.95;;;18.70;42.60;;;;;;5032450;28;20056;-74
2021/04/24 10:41:43;;;;;;;7.88;3.50;;;18.40;42.80;;;;;;5032206;28;20118;-73
2021/04/24 10:44:14;;;;;;;9.95;3.72;;;18.10;42.80;;;;;;5033802;28;20032;-75
2021/04/24 10:46:49;;;;;;;9.52;3.75;;;17.90;43.00;;;;;;5032561;28;20112;-73
2021/04/24 10:49:23;;;;;;;9.30;3.63;;;18.10;43.00;;;;;;5032028;28;20309;-74
2021/04/24 10:52:15;;;;;;;8.45;3.85;;;18.40;43.40;;;;;;5030273;28;20029;-75
2021/04/24 10:54:41;;;;;;;6.38;3.25;;;18.30;42.90;;;;;;5031725;28;20471;-74
2021/04/24 10:57:39;;;;;;;8.60;3.33;;;18.20;43.30;;;;;;5030394;28;20048;-74
2021/04/24 11:00:15;;;;;;;9.40;3.30;;;18.10;42.00;;;;;;5030159;28;20041;-74
2021/04/24 11:02:51;;;;;;;6.10;3.08;;;17.60;41.70;;;;;;5030895;28;20037;-73
2021/04/24 11:05:24;;;;;;;5.88;2.67;;;17.50;41.70;;;;;;5031609;28;20083;-74
2021/04/24 11:08:09;;;;;;;7.55;2.92;;;17.20;42.10;;;;;;5033193;28;20040;-74
2021/04/24 11:10:54;;;;;;;8.23;2.58;;;17.00;42.50;;;;;;5030829;28;20041;-73
2021/04/24 11:13:21;;;;;;;9.57;2.70;;;17.10;43.00;;;;;;5031273;28;20037;-74
2021/04/24 11:15:47;;;;;;;8.32;2.97;;;17.00;42.90;;;;;;5031415;28;20045;-72
2021/04/24 11:18:15;;;;;;;13.98;3.92;;;16.80;40.90;;;;;;5031302;28;20038;-75
2021/04/24 11:20:51;;;;;;;14.98;2.95;;;16.60;41.50;;;;;;5030468;28;20168;-73
2021/04/24 11:23:37;;;;;;;9.50;2.63;;;16.60;41.70;;;;;;5031710;28;20052;-75
2021/04/24 11:26:16;;;;;;;9.45;2.97;;;16.20;42.60;;;;;;5030696;28;20057;-74
2021/04/24 11:28:57;;;;;;;13.38;3.67;;;16.10;42.90;;;;;;5031504;28;20041;-74
2021/04/24 11:31:52;;;;;;;9.00;2.80;;;15.70;43.70;;;;;;5030719;28;20411;-73
2021/04/24 11:34:30;;;;;;;9.75;3.53;;;15.80;43.70;;;;;;5031009;28;20029;-73
2021/04/24 11:37:27;;;;;;;8.88;2.95;;;16.20;43.30;;;;;;5030078;28;20057;-74
2021/04/24 11:40:23;;;;;;;8.25;3.97;;;16.40;43.50;;;;;;5029968;28;20037;-74
2021/04/24 11:42:50;;;;;;;10.73;3.28;;;16.60;43.10;;;;;;5029788;28;20025;-74
2021/04/24 11:45:43;;;;;;;12.52;3.75;;;16.60;42.90;;;;;;5030636;28;20443;-73
2021/04/24 11:48:09;;;;;;;10.35;3.33;;;16.60;42.50;;;;;;5030398;28;20057;-73
2021/04/24 11:50:39;;;;;;;9.43;3.20;;;16.40;42.90;;;;;;5029262;28;20172;-73
2021/04/24 11:53:05;;;;;;;8.57;3.88;;;16.50;42.30;;;;;;5031089;28;20148;-73
2021/04/24 11:55:31;;;;;;;11.50;3.28;;;16.60;42.60;;;;;;5030745;28;20116;-74
2021/04/24 11:58:08;;;;;;;9.15;2.90;;;16.70;41.70;;;;;;5030474;28;20086;-72
2021/04/24 12:00:35;;;;;;;7.40;2.97;;;16.30;41.20;;;;;;5030285;28;20075;-74
2021/04/24 12:03:01;;;;;;;11.48;5.55;;;16.20;42.30;;;;;;5030554;28;20275;-76
2021/04/24 12:05:27;;;;;;;7.90;3.30;;;16.00;42.70;;;;;;5030389;28;20419;-74
2021/04/24 12:07:56;;;;;;;12.07;3.70;;;15.90;43.00;;;;;;5031046;28;20431;-73
2021/04/24 12:10:28;;;;;;;7.53;2.50;;;16.10;42.50;;;;;;5030999;28;20068;-74
2021/04/24 12:13:07;;;;;;;7.57;2.33;;;16.30;42.20;;;;;;5030586;28;20048;-73
2021/04/24 12:15:32;;;;;;;6.90;3.17;;;16.40;41.90;;;;;;5030332;28;20041;-74
2021/04/24 12:18:03;;;;;;;11.07;2.88;;;15.70;41.50;;;;;;5030432;28;20052;-75
2021/04/24 12:20:31;;;;;;;4.80;2.70;;;15.60;41.90;;;;;;5029970;28;21724;-74
2021/04/24 12:22:59;;;;;;;6.55;2.65;;;15.20;41.80;;;;;;5030479;28;20025;-73
2021/04/24 12:25:27;;;;;;;8.18;2.85;;;15.00;41.80;;;;;;5030052;28;20045;-73
2021/04/24 12:27:56;;;;;;;9.50;2.90;;;15.20;42.00;;;;;;5030123;28;20095;-74
2021/04/24 12:30:28;;;;;;;;;;;15.50;42.20;;;;;;5030556;28;20502;-73
2021/04/24 12:33:08;;;;;;;12.13;2.53;;;15.30;42.20;;;;;;5030158;28;19908;-73
2021/04/24 12:35:43;;;;;;;9.70;2.72;;;15.40;42.40;;;;;;5029959;28;20052;-73
2021/04/24 12:38:13;;;;;;;10.55;2.72;;;15.80;42.00;;;;;;5029945;28;20656;-73
2021/04/24 12:40:51;;;;;;;11.02;3.25;;;16.00;41.90;;;;;;5029742;28;20097;-72
2021/04/24 12:43:31;;;;;;;13.48;2.70;;;16.20;41.50;;;;;;5029895;28;20536;-73
2021/04/24 12:46:03;;;;;;;6.32;1.90;;;16.30;41.00;;;;;;5029776;28;20088;-73
2021/04/24 12:48:39;;;;;;;6.15;2.53;;;16.30;40.80;;;;;;5029501;28;20022;-73
2021/04/24 12:51:12;;;;;;;5.80;2.20;;;16.30;41.00;;;;;;5029806;28;20046;-73